createdAt,value
2023-03-05T00:01:38.775Z,4.50
2023-03-05T00:04:10.155Z,4.49
2023-03-05T00:06:36.580Z,4.49
2023-03-05T00:09:03.748Z,4.54
2023-03-05T00:11:31.603Z,4.52
2023-03-05T00:13:59.017Z,4.52
2023-03-05T00:16:26.839Z,4.48
2023-03-05T00:18:54.850Z,4.50
2023-03-05T00:21:21.243Z,4.47
2023-03-05T00:23:47.903Z,4.49
2023-03-05T00:26:14.258Z,4.46
2023-03-05T00:28:40.731Z,4.41
2023-03-05T00:31:07.114Z,4.48
2023-03-05T00:33:33.707Z,4.41
2023-03-05T00:36:02.381Z,4.36
2023-03-05T00:38:28.835Z,4.38
2023-03-05T00:40:55.279Z,4.35
2023-03-05T00:43:21.724Z,4.27
2023-03-05T00:45:48.101Z,4.31
2023-03-05T00:48:14.512Z,4.34
2023-03-05T00:50:40.901Z,4.30
2023-03-05T00:53:07.423Z,4.29
2023-03-05T00:55:35.979Z,4.25
2023-03-05T00:58:02.746Z,4.31
2023-03-05T01:00:29.250Z,4.30
2023-03-05T01:02:55.639Z,4.24
2023-03-05T01:05:22.204Z,4.21
2023-03-05T01:07:51.678Z,4.16
2023-03-05T01:10:19.658Z,4.19
2023-03-05T01:12:46.036Z,4.19
2023-03-05T01:15:12.419Z,4.17
2023-03-05T01:17:40.108Z,4.18
2023-03-05T01:20:07.408Z,4.16
2023-03-05T01:22:33.746Z,4.12
2023-03-05T01:25:00.845Z,4.04
2023-03-05T01:27:27.197Z,4.07
2023-03-05T01:29:53.588Z,4.16
2023-03-05T01:32:20.008Z,4.19
2023-03-05T01:34:46.437Z,4.17
2023-03-05T01:37:12.816Z,4.18
2023-03-05T01:39:39.292Z,4.17
2023-03-05T01:42:06.176Z,4.17
2023-03-05T01:44:34.116Z,4.04
2023-03-05T01:47:00.832Z,4.13
2023-03-05T01:49:39.890Z,4.12
2023-03-05T01:52:11.779Z,4.12
2023-03-05T01:54:49.420Z,4.09
2023-03-05T01:57:20.032Z,4.03
2023-03-05T01:59:50.694Z,4.08
2023-03-05T02:02:18.619Z,4.11
2023-03-05T02:04:55.699Z,4.09
2023-03-05T02:07:22.882Z,4.05
2023-03-05T02:09:49.360Z,4.04
2023-03-05T02:12:16.702Z,4.08
2023-03-05T02:14:46.640Z,4.10
2023-03-05T02:17:13.531Z,4.11
2023-03-05T02:20:25.060Z,4.10
2023-03-05T02:22:51.873Z,4.09
2023-03-05T02:25:21.262Z,4.07
2023-03-05T02:27:53.841Z,4.10
2023-03-05T02:30:20.332Z,4.09
2023-03-05T02:32:47.118Z,4.10
2023-03-05T02:35:13.618Z,4.07
2023-03-05T02:37:40.345Z,4.03
2023-03-05T02:40:07.568Z,4.05
2023-03-05T02:42:34.108Z,4.07
2023-03-05T02:45:01.249Z,4.07
2023-03-05T02:47:27.988Z,3.99
2023-03-05T02:49:55.582Z,3.95
2023-03-05T02:52:25.680Z,3.94
2023-03-05T02:54:52.956Z,3.95
2023-03-05T02:57:19.571Z,3.98
2023-03-05T02:59:46.617Z,4.00
2023-03-05T03:02:13.317Z,4.02
2023-03-05T03:04:39.840Z,3.96
2023-03-05T03:07:06.299Z,3.87
2023-03-05T03:09:35.094Z,3.90
2023-03-05T03:12:02.527Z,3.91
2023-03-05T03:14:38.986Z,3.85
2023-03-05T03:17:06.880Z,3.95
2023-03-05T03:19:33.300Z,3.97
2023-03-05T03:21:59.843Z,3.96
2023-03-05T03:24:26.449Z,3.92
2023-03-05T03:26:52.931Z,3.92
2023-03-05T03:29:19.296Z,3.90
2023-03-05T03:31:45.761Z,3.91
2023-03-05T03:34:16.309Z,3.95
2023-03-05T03:36:44.528Z,3.89
2023-03-05T03:39:11.548Z,3.88
2023-03-05T03:41:42.112Z,3.92
2023-03-05T03:44:10.557Z,3.89
2023-03-05T03:46:38.710Z,3.81
2023-03-05T03:49:06.266Z,3.82
2023-03-05T03:51:32.935Z,3.85
2023-03-05T03:53:59.876Z,3.80
2023-03-05T03:56:26.939Z,3.78
2023-03-05T03:58:54.130Z,3.85
2023-03-05T04:01:21.314Z,3.83
2023-03-05T04:03:47.695Z,3.80
2023-03-05T04:06:14.936Z,3.88
2023-03-05T04:08:41.414Z,3.87
2023-03-05T04:11:08.294Z,3.81
2023-03-05T04:13:34.729Z,3.77
2023-03-05T04:16:01.393Z,3.68
2023-03-05T04:18:27.893Z,3.67
2023-03-05T04:20:54.326Z,3.68
2023-03-05T04:23:20.689Z,3.72
2023-03-05T04:25:47.120Z,3.72
2023-03-05T04:28:13.470Z,3.73
2023-03-05T04:30:39.826Z,3.76
2023-03-05T04:33:06.209Z,3.64
2023-03-05T04:35:32.754Z,3.65
2023-03-05T04:37:59.220Z,3.67
2023-03-05T04:40:25.557Z,3.67
2023-03-05T04:42:51.940Z,3.64
2023-03-05T04:45:18.324Z,3.64
2023-03-05T04:47:44.708Z,3.61
2023-03-05T04:50:12.344Z,3.58
2023-03-05T04:52:43.789Z,3.59
2023-03-05T04:55:12.347Z,3.60
2023-03-05T04:57:38.832Z,3.60
2023-03-05T05:00:07.823Z,3.59
2023-03-05T05:02:34.713Z,3.58
2023-03-05T05:05:01.152Z,3.60
2023-03-05T05:07:27.583Z,3.62
2023-03-05T05:09:54.035Z,3.61
2023-03-05T05:12:20.615Z,3.65
2023-03-05T05:14:47.086Z,3.65
2023-03-05T05:17:13.420Z,3.60
2023-03-05T05:19:39.844Z,3.65
2023-03-05T05:22:06.285Z,3.63
2023-03-05T05:24:32.746Z,3.70
2023-03-05T05:26:59.111Z,3.65
2023-03-05T05:29:26.003Z,3.65
2023-03-05T05:31:54.183Z,3.65
2023-03-05T05:34:20.609Z,3.54
2023-03-05T05:36:46.961Z,3.60
2023-03-05T05:39:13.299Z,3.60
2023-03-05T05:41:39.696Z,3.59
2023-03-05T05:44:06.143Z,3.57
2023-03-05T05:46:32.666Z,3.58
2023-03-05T05:48:59.080Z,3.58
2023-03-05T05:51:25.546Z,3.58
2023-03-05T05:53:51.991Z,3.62
2023-03-05T05:56:19.475Z,3.56
2023-03-05T05:58:48.143Z,3.53
2023-03-05T06:01:22.110Z,3.58
2023-03-05T06:03:48.755Z,3.62
2023-03-05T06:06:18.165Z,3.64
2023-03-05T06:08:44.659Z,3.66
2023-03-05T06:11:11.471Z,3.64
2023-03-05T06:13:38.340Z,3.61
2023-03-05T06:16:08.832Z,3.66
2023-03-05T06:18:35.591Z,3.55
2023-03-05T06:21:04.824Z,3.54
2023-03-05T06:23:31.583Z,3.54
2023-03-05T06:26:03.891Z,3.60
2023-03-05T06:28:30.905Z,3.59
2023-03-05T06:31:02.275Z,3.65
2023-03-05T06:33:29.470Z,3.64
2023-03-05T06:35:55.980Z,3.65
2023-03-05T06:38:22.333Z,3.70
2023-03-05T06:40:48.702Z,3.60
2023-03-05T06:43:15.073Z,3.59
2023-03-05T06:45:41.440Z,3.66
2023-03-05T06:48:07.842Z,3.72
2023-03-05T06:50:35.982Z,3.76
2023-03-05T06:53:02.422Z,3.77
2023-03-05T06:55:29.014Z,3.77
2023-03-05T06:57:55.722Z,3.80
2023-03-05T07:00:22.507Z,3.79
2023-03-05T07:02:48.951Z,3.75
2023-03-05T07:05:15.386Z,3.73
2023-03-05T07:07:41.844Z,3.84
2023-03-05T07:10:08.951Z,3.83
2023-03-05T07:12:35.596Z,3.83
2023-03-05T07:15:02.122Z,3.90
2023-03-05T07:17:28.507Z,3.85
2023-03-05T07:19:54.826Z,3.89
2023-03-05T07:22:21.178Z,3.85
2023-03-05T07:24:47.593Z,3.90
2023-03-05T07:27:14.023Z,3.97
2023-03-05T07:29:40.360Z,3.98
2023-03-05T07:32:07.078Z,4.01
2023-03-05T07:34:33.474Z,3.96
2023-03-05T07:36:59.825Z,4.00
2023-03-05T07:39:26.290Z,3.96
2023-03-05T07:41:52.743Z,3.97
2023-03-05T07:44:20.200Z,3.95
2023-03-05T07:46:46.587Z,3.96
2023-03-05T07:49:12.918Z,3.97
2023-03-05T07:51:40.221Z,4.01
2023-03-05T07:54:07.296Z,4.08
2023-03-05T07:56:35.783Z,4.10
2023-03-05T07:59:05.377Z,4.07
2023-03-05T08:01:33.268Z,4.15
2023-03-05T08:03:59.764Z,4.14
2023-03-05T08:06:26.227Z,4.17
2023-03-05T08:08:52.739Z,4.09
2023-03-05T08:11:19.330Z,4.10
2023-03-05T08:13:45.970Z,4.12
2023-03-05T08:16:15.527Z,4.01
2023-03-05T08:18:42.310Z,4.13
2023-03-05T08:21:16.628Z,4.16
2023-03-05T08:23:42.981Z,4.14
2023-03-05T08:26:17.824Z,4.08
2023-03-05T08:28:44.556Z,4.06
2023-03-05T08:31:12.966Z,4.12
2023-03-05T08:33:40.000Z,4.14
2023-03-05T08:36:07.131Z,4.14
2023-03-05T08:38:33.468Z,4.14
2023-03-05T08:40:59.785Z,4.18
2023-03-05T08:43:26.138Z,4.20
2023-03-05T08:45:53.512Z,4.21
2023-03-05T08:48:20.450Z,4.20
2023-03-05T08:50:47.197Z,4.17
2023-03-05T08:53:13.575Z,4.14
2023-03-05T08:55:39.945Z,4.20
2023-03-05T08:58:06.301Z,4.20
2023-03-05T09:00:32.767Z,4.20
2023-03-05T09:02:59.121Z,4.14
2023-03-05T09:05:25.433Z,4.17
2023-03-05T09:07:51.881Z,4.11
2023-03-05T09:10:18.980Z,4.16
2023-03-05T09:12:45.407Z,4.22
2023-03-05T09:15:12.319Z,4.33
2023-03-05T09:17:41.675Z,4.34
2023-03-05T09:20:11.097Z,4.38
2023-03-05T09:22:37.504Z,4.38
2023-03-05T09:25:04.122Z,4.36
2023-03-05T09:27:34.212Z,4.32
2023-03-05T09:30:00.592Z,4.35
2023-03-05T09:32:26.964Z,4.28
2023-03-05T09:34:53.374Z,4.41
2023-03-05T09:37:19.701Z,4.37
2023-03-05T09:39:46.043Z,4.42
2023-03-05T09:42:33.910Z,4.39
2023-03-05T09:45:42.533Z,4.41
2023-03-05T09:48:22.674Z,4.55
2023-03-05T09:51:24.008Z,4.55
2023-03-05T09:54:10.816Z,4.59
2023-03-05T09:56:41.674Z,4.65
2023-03-05T09:59:28.419Z,4.43
2023-03-05T10:01:59.818Z,4.40
2023-03-05T10:04:41.744Z,4.43
2023-03-05T10:07:19.821Z,4.32
2023-03-05T10:09:57.556Z,4.30
2023-03-05T10:12:45.380Z,4.45
2023-03-05T10:15:21.128Z,4.45
2023-03-05T10:17:55.087Z,4.67
2023-03-05T10:20:51.687Z,4.69
2023-03-05T10:23:56.582Z,4.80
2023-03-05T10:26:40.728Z,4.89
2023-03-05T10:29:23.085Z,4.86
2023-03-05T10:31:59.931Z,4.97
2023-03-05T10:34:34.282Z,5.12
2023-03-05T10:37:16.792Z,5.33
2023-03-05T10:39:56.322Z,5.54
2023-03-05T10:42:38.022Z,5.79
2023-03-05T10:45:35.783Z,5.77
2023-03-05T10:48:11.593Z,5.85
2023-03-05T10:50:44.669Z,5.77
2023-03-05T10:53:28.693Z,5.61
2023-03-05T10:55:56.530Z,5.56
2023-03-05T10:58:24.890Z,5.48
2023-03-05T11:01:10.524Z,5.53
2023-03-05T11:03:58.689Z,5.54
2023-03-05T11:06:39.472Z,5.66
2023-03-05T11:09:24.382Z,5.78
2023-03-05T11:12:11.914Z,5.81
2023-03-05T11:14:45.679Z,5.88
2023-03-05T11:17:32.331Z,6.05
2023-03-05T11:20:27.466Z,5.92
2023-03-05T11:23:11.264Z,6.14
2023-03-05T11:25:57.677Z,6.21
2023-03-05T11:28:34.955Z,6.40
2023-03-05T11:31:23.484Z,6.25
2023-03-05T11:34:05.290Z,6.26
2023-03-05T11:36:40.563Z,6.19
2023-03-05T11:39:07.520Z,6.03
2023-03-05T11:41:47.598Z,5.91
2023-03-05T11:44:29.998Z,5.98
2023-03-05T11:47:02.469Z,6.07
2023-03-05T11:49:32.449Z,6.09
2023-03-05T11:52:02.075Z,5.93
2023-03-05T11:54:56.153Z,5.92
2023-03-05T11:57:24.514Z,6.02
2023-03-05T11:59:54.803Z,5.97
2023-03-05T12:02:24.193Z,5.87
2023-03-05T12:04:51.544Z,5.96
2023-03-05T12:07:28.433Z,5.99
2023-03-05T12:09:55.602Z,6.40
2023-03-05T12:12:37.370Z,6.48
2023-03-05T12:15:28.742Z,6.80
2023-03-05T12:18:14.111Z,6.60
2023-03-05T12:20:53.223Z,6.70
2023-03-05T12:23:22.577Z,6.48
2023-03-05T12:25:52.355Z,6.39
2023-03-05T12:28:30.824Z,6.44
2023-03-05T12:31:00.824Z,6.36
2023-03-05T12:33:34.823Z,6.16
2023-03-05T12:36:19.360Z,6.09
2023-03-05T12:38:51.883Z,6.02
2023-03-05T12:41:25.885Z,5.99
2023-03-05T12:44:05.825Z,5.90
2023-03-05T12:47:04.289Z,6.01
2023-03-05T12:49:40.497Z,5.87
2023-03-05T12:52:21.684Z,5.83
2023-03-05T12:54:59.892Z,5.77
2023-03-05T12:57:29.326Z,5.72
2023-03-05T13:00:05.285Z,5.67
2023-03-05T13:02:45.088Z,5.54
2023-03-05T13:05:24.378Z,5.70
2023-03-05T13:07:51.571Z,5.67
2023-03-05T13:10:23.958Z,5.57
2023-03-05T13:12:53.418Z,5.66
2023-03-05T13:15:21.731Z,5.52
2023-03-05T13:18:00.331Z,5.60
2023-03-05T13:20:31.732Z,5.65
2023-03-05T13:23:21.672Z,5.71
2023-03-05T13:26:18.352Z,5.85
2023-03-05T13:29:02.493Z,5.93
2023-03-05T13:31:28.885Z,5.89
2023-03-05T13:34:32.049Z,5.88
2023-03-05T13:37:04.728Z,5.80
2023-03-05T13:39:35.265Z,5.77
2023-03-05T13:42:15.817Z,5.80
2023-03-05T13:44:42.249Z,5.73
2023-03-05T13:47:20.060Z,5.72
2023-03-05T13:49:47.229Z,5.60
2023-03-05T13:52:29.660Z,5.52
2023-03-05T13:54:56.988Z,5.43
2023-03-05T13:57:37.300Z,5.57
2023-03-05T14:00:24.621Z,5.53
2023-03-05T14:02:51.774Z,5.58
2023-03-05T14:05:18.801Z,5.57
2023-03-05T14:07:49.629Z,5.53
2023-03-05T14:10:28.190Z,5.49
2023-03-05T14:12:54.916Z,5.51
2023-03-05T14:15:30.601Z,5.46
2023-03-05T14:18:18.402Z,5.59
2023-03-05T14:21:17.048Z,5.50
2023-03-05T14:23:48.106Z,5.58
2023-03-05T14:26:39.886Z,5.65
2023-03-05T14:29:09.029Z,5.67
2023-03-05T14:31:46.067Z,5.73
2023-03-05T14:34:24.504Z,5.64
2023-03-05T14:36:53.893Z,5.69
2023-03-05T14:40:06.208Z,5.71
2023-03-05T14:42:41.533Z,5.72
2023-03-05T14:45:18.833Z,5.62
2023-03-05T14:47:45.235Z,5.68
2023-03-05T14:50:20.135Z,5.74
2023-03-05T14:52:48.441Z,5.66
2023-03-05T14:55:16.845Z,5.66
2023-03-05T14:57:43.177Z,5.69
2023-03-05T15:00:17.289Z,5.62
2023-03-05T15:02:43.971Z,5.61
2023-03-05T15:05:10.318Z,5.58
2023-03-05T15:07:36.910Z,5.63
2023-03-05T15:10:04.650Z,5.63
2023-03-05T15:12:30.948Z,5.59
2023-03-05T15:14:57.341Z,5.47
2023-03-05T15:17:33.396Z,5.54
2023-03-05T15:20:00.719Z,5.60
2023-03-05T15:22:27.144Z,5.47
2023-03-05T15:24:53.548Z,5.49
2023-03-05T15:27:19.916Z,5.52
2023-03-05T15:29:46.216Z,5.46
2023-03-05T15:32:12.573Z,5.47
2023-03-05T15:34:38.940Z,5.50
2023-03-05T15:37:05.390Z,5.50
2023-03-05T15:39:31.802Z,5.53
2023-03-05T15:41:58.563Z,5.51
2023-03-05T15:44:25.445Z,5.56
2023-03-05T15:46:51.909Z,5.47
2023-03-05T15:49:18.276Z,5.51
2023-03-05T15:51:44.680Z,5.54
2023-03-05T15:54:11.357Z,5.54
2023-03-05T15:56:37.834Z,5.52
2023-03-05T15:59:05.002Z,5.45
2023-03-05T16:01:31.459Z,5.45
2023-03-05T16:03:57.806Z,5.50
2023-03-05T16:06:24.808Z,5.45
2023-03-05T16:08:55.419Z,5.43
2023-03-05T16:11:21.941Z,5.44
2023-03-05T16:13:50.337Z,5.47
2023-03-05T16:16:17.247Z,5.47
2023-03-05T16:18:44.880Z,5.49
2023-03-05T16:21:11.829Z,5.47
2023-03-05T16:23:38.172Z,5.42
2023-03-05T16:26:04.729Z,5.44
2023-03-05T16:28:31.148Z,5.46
2023-03-05T16:30:58.391Z,5.36
2023-03-05T16:33:25.125Z,5.35
2023-03-05T16:36:11.471Z,5.33
2023-03-05T16:38:38.033Z,5.35
2023-03-05T16:41:08.853Z,5.32
2023-03-05T16:43:35.409Z,5.25
2023-03-05T16:46:01.787Z,5.24
2023-03-05T16:48:29.989Z,5.27
2023-03-05T16:50:57.714Z,5.27
2023-03-05T16:53:24.119Z,5.25
2023-03-05T16:55:50.505Z,5.21
2023-03-05T16:58:16.821Z,5.20
2023-03-05T17:00:43.270Z,5.20
2023-03-05T17:03:09.582Z,5.18
2023-03-05T17:05:37.204Z,5.18
2023-03-05T17:08:04.495Z,5.15
2023-03-05T17:10:31.396Z,5.08
2023-03-05T17:12:57.782Z,5.07
2023-03-05T17:15:24.883Z,5.05
2023-03-05T17:17:51.208Z,5.08
2023-03-05T17:20:17.904Z,5.09
2023-03-05T17:22:44.230Z,5.05
2023-03-05T17:25:10.752Z,5.02
2023-03-05T17:27:37.422Z,5.04
2023-03-05T17:30:05.081Z,5.06
2023-03-05T17:32:31.489Z,5.05
2023-03-05T17:34:57.828Z,5.02
2023-03-05T17:37:24.152Z,5.04
2023-03-05T17:39:50.632Z,5.05
2023-03-05T17:42:20.335Z,5.00
2023-03-05T17:47:18.870Z,5.01
2023-03-05T17:49:45.203Z,4.99
2023-03-05T17:52:11.496Z,4.96
2023-03-05T17:54:37.880Z,4.96
2023-03-05T17:57:04.380Z,5.00
2023-03-05T17:59:30.698Z,5.00
2023-03-05T18:01:57.150Z,4.98
2023-03-05T18:04:23.785Z,4.97
2023-03-05T18:06:50.208Z,4.93
2023-03-05T18:09:16.532Z,4.92
2023-03-05T18:11:42.902Z,4.93
2023-03-05T18:14:09.256Z,4.94
2023-03-05T18:16:35.651Z,4.89
2023-03-05T18:19:02.037Z,4.94
2023-03-05T18:21:28.416Z,4.92
2023-03-05T18:23:54.994Z,4.90
2023-03-05T18:26:21.340Z,4.94
2023-03-05T18:28:47.651Z,4.98
2023-03-05T18:31:14.155Z,4.93
2023-03-05T18:33:40.961Z,4.84
2023-03-05T18:36:09.660Z,4.80
2023-03-05T18:38:36.099Z,4.82
2023-03-05T18:41:03.397Z,4.84
2023-03-05T18:43:29.780Z,4.80
2023-03-05T18:45:56.380Z,4.78
2023-03-05T18:48:23.048Z,4.72
2023-03-05T18:50:53.763Z,4.72
2023-03-05T18:53:21.757Z,4.72
2023-03-05T18:55:49.756Z,4.63
2023-03-05T18:58:17.498Z,4.62
2023-03-05T19:00:46.745Z,4.61
2023-03-05T19:03:14.525Z,4.63
2023-03-05T19:05:41.627Z,4.67
2023-03-05T19:08:08.327Z,4.63
2023-03-05T19:10:35.114Z,4.65
2023-03-05T19:13:35.650Z,4.65
2023-03-05T19:16:20.191Z,4.63
2023-03-05T19:19:16.317Z,4.57
2023-03-05T19:21:44.729Z,4.56
2023-03-05T19:24:11.462Z,4.55
2023-03-05T19:26:38.534Z,4.51
2023-03-05T19:29:05.826Z,4.48
2023-03-05T19:31:32.143Z,4.41
2023-03-05T19:33:58.670Z,4.44
2023-03-05T19:36:24.963Z,4.46
2023-03-05T19:38:51.409Z,4.46
2023-03-05T19:41:19.384Z,4.43
2023-03-05T19:43:46.600Z,4.46
2023-03-05T19:46:12.951Z,4.45
2023-03-05T19:48:40.982Z,4.39
2023-03-05T19:51:16.631Z,4.42
2023-03-05T19:53:43.633Z,4.47
2023-03-05T19:56:11.060Z,4.31
2023-03-05T19:58:37.607Z,4.25
2023-03-05T20:01:28.307Z,4.28
2023-03-05T20:03:57.052Z,4.33
2023-03-05T20:06:24.942Z,4.31
2023-03-05T20:08:51.506Z,4.31
2023-03-05T20:11:19.893Z,4.30
2023-03-05T20:13:46.601Z,4.23
2023-03-05T20:16:23.839Z,4.25
2023-03-05T20:18:52.876Z,4.29
2023-03-05T20:21:24.384Z,4.19
2023-03-05T20:23:52.399Z,4.24
2023-03-05T20:26:19.520Z,4.23
2023-03-05T20:28:46.156Z,4.30
2023-03-05T20:31:12.806Z,4.22
2023-03-05T20:33:39.352Z,4.23
2023-03-05T20:36:06.112Z,4.25
2023-03-05T20:38:32.519Z,4.29
2023-03-05T20:41:11.664Z,4.29
2023-03-05T20:43:41.296Z,4.33
2023-03-05T20:46:14.582Z,4.30
2023-03-05T20:48:40.980Z,4.32
2023-03-05T20:51:19.147Z,4.33
2023-03-05T20:53:45.847Z,4.32
2023-03-05T20:56:12.181Z,4.32
2023-03-05T20:58:38.596Z,4.29
2023-03-05T21:01:05.354Z,4.25
2023-03-05T21:03:31.816Z,4.25
2023-03-05T21:05:58.544Z,4.26
2023-03-05T21:08:24.911Z,4.25
2023-03-05T21:10:51.292Z,4.16
2023-03-05T21:13:17.624Z,4.11
2023-03-05T21:15:43.927Z,4.06
2023-03-05T21:18:10.473Z,4.02
2023-03-05T21:20:36.862Z,3.98
2023-03-05T21:23:03.898Z,3.95
2023-03-05T21:25:32.308Z,3.94
2023-03-05T21:28:12.484Z,3.97
2023-03-05T21:30:44.930Z,3.90
2023-03-05T21:33:13.990Z,3.89
2023-03-05T21:35:40.993Z,3.85
2023-03-05T21:38:08.748Z,3.85
2023-03-05T21:40:37.255Z,3.74
2023-03-05T21:43:03.930Z,3.65
2023-03-05T21:45:31.240Z,3.64
2023-03-05T21:47:59.005Z,3.71
2023-03-05T21:50:26.288Z,3.68
2023-03-05T21:52:53.147Z,3.64
2023-03-05T21:55:24.048Z,3.56
2023-03-05T21:57:50.365Z,3.58
2023-03-05T22:00:22.591Z,3.59
2023-03-05T22:02:49.075Z,3.53
2023-03-05T22:05:15.602Z,3.50
2023-03-05T22:07:42.570Z,3.52
2023-03-05T22:10:20.360Z,3.53
2023-03-05T22:13:12.651Z,3.50
2023-03-05T22:15:46.358Z,3.53
2023-03-05T22:18:14.334Z,3.56
2023-03-05T22:20:40.929Z,3.56
2023-03-05T22:23:10.808Z,3.55
2023-03-05T22:25:37.608Z,3.55
2023-03-05T22:28:07.719Z,3.55
2023-03-05T22:30:34.130Z,3.55
2023-03-05T22:33:03.453Z,3.60
2023-03-05T22:35:30.249Z,3.55
2023-03-05T22:37:57.873Z,3.60
2023-03-05T22:40:24.511Z,3.59
2023-03-05T22:42:50.976Z,3.60
2023-03-05T22:45:18.304Z,3.58
2023-03-05T22:47:51.404Z,3.66
2023-03-05T22:50:18.471Z,3.63
2023-03-05T22:52:44.963Z,3.64
2023-03-05T22:55:14.245Z,3.71
2023-03-05T22:57:41.433Z,3.68
2023-03-05T23:00:13.956Z,3.70
2023-03-05T23:02:41.819Z,3.66
2023-03-05T23:05:09.482Z,3.72
2023-03-05T23:07:37.885Z,3.78
2023-03-05T23:10:22.795Z,3.72
2023-03-05T23:12:52.917Z,3.69
2023-03-05T23:15:31.511Z,3.74
2023-03-05T23:17:58.804Z,3.61
2023-03-05T23:20:30.708Z,3.57
2023-03-05T23:22:58.119Z,3.52
2023-03-05T23:25:29.414Z,3.54
2023-03-05T23:27:57.940Z,3.60
2023-03-05T23:30:27.253Z,3.47
2023-03-05T23:33:04.971Z,3.50
2023-03-05T23:35:37.396Z,3.54
2023-03-05T23:38:07.625Z,3.62
2023-03-05T23:40:36.794Z,3.49
2023-03-05T23:43:03.830Z,3.45
2023-03-05T23:45:31.237Z,3.49
2023-03-05T23:47:57.929Z,3.36
2023-03-05T23:50:36.694Z,3.38
2023-03-05T23:53:03.911Z,3.36
2023-03-05T23:55:33.766Z,3.28
2023-03-05T23:58:00.828Z,3.27
